Time;durP1;ratioP1;P1;durP2;ratioP2;P2;SDS_P1;SDS_P2;PMS_P1;PMS_P2;Temp;Humidity;BMP_temperature;BMP_pressure;BME280_temperature;BME280_humidity;BME280_pressure;Samples;Min_cycle;Max_cycle;Signal;HPM_P1;HPM_P2
2024/01/27 00:02:19;;;;;;;2.25;1.33;;;;;;;;;;5075484;28;20428;-81
2024/01/27 00:04:45;;;;;;;3.15;1.42;;;;;;;;;;5075449;28;20389;-82
2024/01/27 00:07:12;;;;;;;2.72;1.30;;;;;;;;;;5055527;28;20384;-83
2024/01/27 00:09:38;;;;;;;1.52;1.25;;;;;;;;;;5049535;28;20734;-83
2024/01/27 00:12:04;;;;;;;2.03;1.43;;;;;;;;;;5051882;28;20797;-83
2024/01/27 00:14:30;;;;;;;2.00;1.30;;;;;;;;;;5055884;28;20368;-82
2024/01/27 00:16:56;;;;;;;2.45;1.40;;;;;;;;;;5054327;28;20490;-82
2024/01/27 00:19:22;;;;;;;1.95;1.33;;;;;;;;;;5055103;28;20410;-82
2024/01/27 00:21:49;;;;;;;1.27;0.98;;;;;;;;;;5051975;28;20418;-82
2024/01/27 00:24:15;;;;;;;1.70;1.25;;;;;;;;;;5050152;28;20394;-83
2024/01/27 00:26:42;;;;;;;3.33;1.38;;;;;;;;;;5052722;28;20406;-83
2024/01/27 00:29:08;;;;;;;2.00;1.20;;;;;;;;;;5054004;28;20443;-83
2024/01/27 00:31:36;;;;;;;2.70;1.20;;;;;;;;;;5051058;28;20439;-83
2024/01/27 00:34:02;;;;;;;2.17;1.08;;;;;;;;;;5048406;28;20424;-83
2024/01/27 00:36:36;;;;;;;1.45;1.20;;;;;;;;;;5054908;28;20371;-83
2024/01/27 00:39:04;;;;;;;1.60;1.00;;;;;;;;;;5055360;28;20388;-83
2024/01/27 00:41:33;;;;;;;2.90;1.05;;;;;;;;;;5055633;28;20430;-82
2024/01/27 00:44:03;;;;;;;2.15;1.20;;;;;;;;;;5055819;28;20383;-83
2024/01/27 00:47:03;;;;;;;2.20;1.38;;;;;;;;;;5055917;28;20375;-82
2024/01/27 00:49:35;;;;;;;2.83;1.40;;;;;;;;;;5056333;28;20367;-82
2024/01/27 00:52:02;;;;;;;2.10;1.35;;;;;;;;;;5055536;28;20403;-82
2024/01/27 00:54:28;;;;;;;2.40;1.10;;;;;;;;;;5054737;28;20426;-82
2024/01/27 00:56:54;;;;;;;2.50;1.10;;;;;;;;;;5054020;28;20466;-80
2024/01/27 00:59:32;;;;;;;1.87;1.30;;;;;;;;;;5055433;28;20397;-82
2024/01/27 01:01:58;;;;;;;2.20;1.10;;;;;;;;;;5069807;28;20447;-82
2024/01/27 01:04:26;;;;;;;1.83;1.10;;;;;;;;;;5054955;28;20406;-82
2024/01/27 01:06:55;;;;;;;1.60;1.05;;;;;;;;;;5054514;28;20450;-81
2024/01/27 01:09:22;;;;;;;1.30;1.20;;;;;;;;;;5055575;28;20370;-81
2024/01/27 01:11:50;;;;;;;0.90;0.70;;;;;;;;;;5055356;28;20404;-81
2024/01/27 01:14:17;;;;;;;1.90;1.00;;;;;;;;;;5054182;28;20395;-80
2024/01/27 01:16:45;;;;;;;1.48;1.17;;;;;;;;;;5055022;28;20379;-82
2024/01/27 01:19:13;;;;;;;1.10;1.00;;;;;;;;;;5054752;28;20395;-82
2024/01/27 01:21:41;;;;;;;1.40;1.10;;;;;;;;;;5053305;28;20403;-82
2024/01/27 01:24:07;;;;;;;1.02;0.93;;;;;;;;;;5053625;28;20398;-81
2024/01/27 01:26:34;;;;;;;1.63;1.00;;;;;;;;;;5054179;28;20379;-82
2024/01/27 01:29:02;;;;;;;1.60;0.90;;;;;;;;;;5053444;28;20476;-83
2024/01/27 01:31:29;;;;;;;2.20;1.10;;;;;;;;;;5053969;28;20412;-81
2024/01/27 01:33:55;;;;;;;2.60;1.20;;;;;;;;;;5054742;28;20388;-83
2024/01/27 01:36:23;;;;;;;1.40;1.05;;;;;;;;;;5054558;28;20386;-83
2024/01/27 01:38:49;;;;;;;2.03;1.30;;;;;;;;;;5054118;28;20379;-82
2024/01/27 01:41:16;;;;;;;1.85;1.30;;;;;;;;;;5053471;28;20490;-82
2024/01/27 01:43:43;;;;;;;2.05;1.50;;;;;;;;;;5053658;28;20443;-82
2024/01/27 01:46:10;;;;;;;2.40;1.60;;;;;;;;;;5053092;28;20398;-82
2024/01/27 01:48:39;;;;;;;1.85;1.17;;;;;;;;;;5051568;28;20410;-82
2024/01/27 01:51:06;;;;;;;2.38;1.40;;;;;;;;;;5050600;28;20394;-82
2024/01/27 01:53:33;;;;;;;2.55;1.42;;;;;;;;;;5051898;28;20398;-82
2024/01/27 01:56:02;;;;;;;3.55;1.60;;;;;;;;;;5052989;28;20383;-83
2024/01/27 01:58:38;;;;;;;3.47;1.70;;;;;;;;;;5041062;28;20385;-82
2024/01/27 02:01:05;;;;;;;3.80;1.77;;;;;;;;;;5032268;28;20385;-81
2024/01/27 02:03:34;;;;;;;2.60;1.70;;;;;;;;;;5032289;28;20393;-82
2024/01/27 02:06:02;;;;;;;3.08;1.85;;;;;;;;;;5032706;28;20436;-81
2024/01/27 02:08:28;;;;;;;2.92;1.83;;;;;;;;;;5032832;28;20381;-83
2024/01/27 02:10:58;;;;;;;4.82;1.73;;;;;;;;;;5034027;28;20381;-82
2024/01/27 02:13:27;;;;;;;3.85;1.67;;;;;;;;;;5032272;28;20385;-82
2024/01/27 02:15:57;;;;;;;3.05;1.42;;;;;;;;;;5033272;28;20431;-82
2024/01/27 02:18:23;;;;;;;1.55;1.20;;;;;;;;;;5033485;28;20440;-80
2024/01/27 02:20:50;;;;;;;1.57;1.27;;;;;;;;;;5028826;28;20393;-82
2024/01/27 02:23:18;;;;;;;2.20;1.52;;;;;;;;;;5035340;28;20415;-81
2024/01/27 02:25:44;;;;;;;1.70;1.20;;;;;;;;;;5036091;28;20400;-82
2024/01/27 02:28:12;;;;;;;2.17;1.23;;;;;;;;;;5036111;28;20388;-82
2024/01/27 02:30:42;;;;;;;2.75;1.50;;;;;;;;;;5034635;28;20380;-82
2024/01/27 02:33:09;;;;;;;2.15;1.58;;;;;;;;;;5035145;28;20396;-81
2024/01/27 02:35:38;;;;;;;2.07;1.30;;;;;;;;;;5034898;28;20476;-82
2024/01/27 02:38:04;;;;;;;1.45;1.30;;;;;;;;;;5032794;28;20420;-82
2024/01/27 02:40:31;;;;;;;2.10;1.40;;;;;;;;;;5034978;28;20381;-82
2024/01/27 02:42:57;;;;;;;2.00;1.40;;;;;;;;;;5035737;28;20451;-82
2024/01/27 02:45:25;;;;;;;2.60;1.90;;;;;;;;;;5034707;28;20389;-83
2024/01/27 02:47:52;;;;;;;3.47;1.60;;;;;;;;;;5033504;28;20497;-82
2024/01/27 02:50:18;;;;;;;3.05;1.73;;;;;;;;;;5033562;28;20434;-82
2024/01/27 02:52:44;;;;;;;3.08;1.80;;;;;;;;;;5036165;28;20404;-82
2024/01/27 02:55:16;;;;;;;2.45;1.63;;;;;;;;;;5033941;28;20389;-82
2024/01/27 02:57:42;;;;;;;1.73;1.52;;;;;;;;;;5038784;28;20397;-83
2024/01/27 03:00:08;;;;;;;2.80;1.55;;;;;;;;;;5038990;28;20464;-82
2024/01/27 03:02:43;;;;;;;3.15;1.60;;;;;;;;;;5039097;28;20485;-81
2024/01/27 03:07:45;;;;;;;2.47;1.38;;;;;;;;;;5646396;22;20428;-79
2024/01/27 03:10:11;;;;;;;2.45;1.30;;;;;;;;;;5075289;28;20397;-82
2024/01/27 03:12:37;;;;;;;1.80;1.38;;;;;;;;;;5060366;28;20399;-83
2024/01/27 03:15:04;;;;;;;3.55;1.40;;;;;;;;;;5077345;28;20404;-82
2024/01/27 03:17:30;;;;;;;1.77;1.50;;;;;;;;;;5057901;28;20485;-82
2024/01/27 03:19:56;;;;;;;2.38;1.67;;;;;;;;;;5077148;28;20397;-82
2024/01/27 03:22:22;;;;;;;2.65;1.50;;;;;;;;;;5078052;28;20429;-81
2024/01/27 03:24:48;;;;;;;2.05;1.55;;;;;;;;;;5077916;28;20383;-81
2024/01/27 03:27:14;;;;;;;2.27;1.80;;;;;;;;;;5077712;28;20393;-80
2024/01/27 03:29:40;;;;;;;2.92;1.90;;;;;;;;;;5059170;28;20401;-80
2024/01/27 03:32:06;;;;;;;1.98;1.63;;;;;;;;;;5076354;28;20404;-82
2024/01/27 03:34:32;;;;;;;2.60;1.70;;;;;;;;;;5075423;28;20424;-81
2024/01/27 03:36:58;;;;;;;2.90;1.77;;;;;;;;;;5058752;28;20374;-81
2024/01/27 03:39:24;;;;;;;2.20;1.80;;;;;;;;;;5058290;28;20472;-81
2024/01/27 03:41:50;;;;;;;2.60;1.83;;;;;;;;;;5075771;28;20457;-82
2024/01/27 03:44:17;;;;;;;3.20;1.70;;;;;;;;;;5058815;28;20389;-80
2024/01/27 03:46:43;;;;;;;2.88;1.98;;;;;;;;;;5076060;28;20382;-81
2024/01/27 03:49:09;;;;;;;2.67;1.70;;;;;;;;;;5075004;28;20398;-80
2024/01/27 03:51:35;;;;;;;3.53;2.08;;;;;;;;;;5076060;28;20392;-80
2024/01/27 03:54:01;;;;;;;2.50;1.55;;;;;;;;;;5058800;28;20436;-80
2024/01/27 03:56:27;;;;;;;2.60;1.77;;;;;;;;;;5075633;28;20386;-80
2024/01/27 03:58:53;;;;;;;2.20;1.58;;;;;;;;;;5075660;28;20362;-80
2024/01/27 04:01:19;;;;;;;2.42;1.83;;;;;;;;;;5056978;28;20404;-80
2024/01/27 04:03:45;;;;;;;2.53;1.80;;;;;;;;;;5074945;28;20385;-80
2024/01/27 04:06:11;;;;;;;3.47;1.83;;;;;;;;;;5057802;28;20412;-80
2024/01/27 04:08:37;;;;;;;3.08;1.75;;;;;;;;;;5074759;28;20385;-81
2024/01/27 04:11:03;;;;;;;2.38;1.92;;;;;;;;;;5076134;28;20420;-80
2024/01/27 04:13:29;;;;;;;2.60;1.75;;;;;;;;;;5057263;28;20471;-81
2024/01/27 04:15:59;;;;;;;1.63;1.50;;;;;;;;;;5057706;28;20497;-82
2024/01/27 04:18:25;;;;;;;2.70;1.70;;;;;;;;;;5075279;28;20369;-81
2024/01/27 04:20:51;;;;;;;3.33;2.13;;;;;;;;;;5057897;28;20393;-81
2024/01/27 04:23:17;;;;;;;2.15;1.70;;;;;;;;;;5057540;28;20413;-82
2024/01/27 04:25:43;;;;;;;3.00;1.90;;;;;;;;;;5074802;28;20377;-81
2024/01/27 04:28:11;;;;;;;3.97;2.20;;;;;;;;;;5075326;28;20482;-81
2024/01/27 04:30:38;;;;;;;2.70;2.03;;;;;;;;;;5075600;28;20373;-82
2024/01/27 04:33:07;;;;;;;2.15;1.60;;;;;;;;;;5075121;28;20868;-80
2024/01/27 04:35:33;;;;;;;2.03;1.83;;;;;;;;;;5074479;28;20396;-82
2024/01/27 04:37:59;;;;;;;3.22;1.83;;;;;;;;;;5072695;28;20385;-80
2024/01/27 04:40:25;;;;;;;2.45;2.00;;;;;;;;;;5075023;28;20413;-80
2024/01/27 04:42:51;;;;;;;2.35;1.90;;;;;;;;;;5073660;28;20463;-80
2024/01/27 04:45:17;;;;;;;2.80;2.20;;;;;;;;;;5073482;28;20381;-81
2024/01/27 04:47:43;;;;;;;2.65;2.10;;;;;;;;;;5074529;28;20401;-80
2024/01/27 04:50:09;;;;;;;3.17;2.20;;;;;;;;;;5073698;28;20441;-82
2024/01/27 04:52:35;;;;;;;2.30;2.00;;;;;;;;;;5074075;28;20386;-82
2024/01/27 04:55:03;;;;;;;3.38;2.38;;;;;;;;;;5072382;28;20407;-82
2024/01/27 04:57:29;;;;;;;2.50;1.90;;;;;;;;;;5048966;28;20472;-82
2024/01/27 04:59:55;;;;;;;3.58;2.20;;;;;;;;;;5068163;28;20389;-82
2024/01/27 05:02:21;;;;;;;3.47;2.10;;;;;;;;;;5068063;28;20455;-82
2024/01/27 05:04:47;;;;;;;3.83;2.42;;;;;;;;;;5050330;28;20402;-82
2024/01/27 05:07:13;;;;;;;3.47;2.50;;;;;;;;;;5068028;28;20401;-82
2024/01/27 05:09:39;;;;;;;3.30;2.58;;;;;;;;;;5067168;28;20468;-82
2024/01/27 05:12:05;;;;;;;4.22;2.33;;;;;;;;;;5066416;28;20374;-82
2024/01/27 05:14:31;;;;;;;3.95;2.75;;;;;;;;;;5066618;28;20384;-82
2024/01/27 05:16:57;;;;;;;3.35;2.67;;;;;;;;;;5065019;28;20385;-82
2024/01/27 05:19:23;;;;;;;3.45;2.40;;;;;;;;;;5046025;28;20385;-82
2024/01/27 05:21:49;;;;;;;3.95;2.72;;;;;;;;;;5060208;28;20440;-82
2024/01/27 05:24:15;;;;;;;3.30;2.37;;;;;;;;;;5061294;28;20461;-82
2024/01/27 05:26:41;;;;;;;2.70;2.50;;;;;;;;;;5066174;28;20381;-82
2024/01/27 05:29:08;;;;;;;3.25;2.33;;;;;;;;;;5064225;28;20388;-82
2024/01/27 05:31:35;;;;;;;3.57;2.57;;;;;;;;;;5063254;28;20381;-82
2024/01/27 05:34:01;;;;;;;4.30;2.40;;;;;;;;;;5067217;28;20381;-82
2024/01/27 05:36:27;;;;;;;3.97;2.53;;;;;;;;;;5059481;28;20391;-82
2024/01/27 05:38:53;;;;;;;3.30;2.50;;;;;;;;;;5058640;28;20381;-82
2024/01/27 05:41:19;;;;;;;3.87;2.50;;;;;;;;;;5066303;28;20419;-81
2024/01/27 05:43:45;;;;;;;3.90;2.60;;;;;;;;;;5052632;28;20397;-81
2024/01/27 05:46:11;;;;;;;4.18;2.92;;;;;;;;;;5054120;28;20440;-80
2024/01/27 05:48:37;;;;;;;3.92;3.13;;;;;;;;;;5069483;28;20387;-81
2024/01/27 05:51:03;;;;;;;4.63;3.72;;;;;;;;;;5053417;28;20385;-80
2024/01/27 05:53:29;;;;;;;5.57;4.10;;;;;;;;;;5072161;28;20472;-80
2024/01/27 05:55:56;;;;;;;4.57;3.67;;;;;;;;;;5073714;28;20385;-80
2024/01/27 05:58:22;;;;;;;4.45;3.40;;;;;;;;;;5073821;28;20381;-80
2024/01/27 06:00:49;;;;;;;3.33;2.90;;;;;;;;;;5073418;28;20422;-81
2024/01/27 06:03:16;;;;;;;3.65;3.05;;;;;;;;;;5055622;28;20433;-80
2024/01/27 06:05:42;;;;;;;3.47;3.17;;;;;;;;;;5055406;28;20385;-81
2024/01/27 06:08:08;;;;;;;3.83;3.38;;;;;;;;;;5073164;28;20416;-81
2024/01/27 06:10:36;;;;;;;3.70;3.20;;;;;;;;;;5071908;28;20377;-80
2024/01/27 06:13:02;;;;;;;4.07;3.17;;;;;;;;;;5054103;28;20404;-81
2024/01/27 06:15:28;;;;;;;4.68;3.33;;;;;;;;;;5071370;28;20386;-81
2024/01/27 06:17:54;;;;;;;4.38;3.17;;;;;;;;;;5049055;28;20401;-81
2024/01/27 06:20:20;;;;;;;3.92;3.53;;;;;;;;;;5072097;28;20393;-81
2024/01/27 06:22:46;;;;;;;3.97;3.47;;;;;;;;;;5065649;28;20472;-82
2024/01/27 06:25:12;;;;;;;4.88;3.50;;;;;;;;;;5052762;28;20382;-82
2024/01/27 06:27:38;;;;;;;4.88;3.90;;;;;;;;;;5071652;28;20413;-82
2024/01/27 06:30:05;;;;;;;4.28;3.63;;;;;;;;;;5071920;28;20385;-81
2024/01/27 06:32:31;;;;;;;5.85;4.20;;;;;;;;;;5070357;28;20382;-81
2024/01/27 06:34:57;;;;;;;5.43;4.35;;;;;;;;;;5070308;28;20396;-82
2024/01/27 06:37:23;;;;;;;4.50;4.10;;;;;;;;;;5052249;28;20398;-81
2024/01/27 06:39:49;;;;;;;4.72;4.22;;;;;;;;;;5052729;28;20409;-81
2024/01/27 06:42:15;;;;;;;5.75;3.90;;;;;;;;;;5071358;28;20409;-81
2024/01/27 06:44:41;;;;;;;4.50;4.07;;;;;;;;;;5072461;28;20389;-80
2024/01/27 06:47:07;;;;;;;3.90;3.47;;;;;;;;;;5070273;28;20384;-81
2024/01/27 06:49:33;;;;;;;4.67;4.17;;;;;;;;;;5052755;28;20864;-80
2024/01/27 06:52:00;;;;;;;5.22;4.20;;;;;;;;;;5070252;28;20382;-80
2024/01/27 06:54:26;;;;;;;4.63;4.15;;;;;;;;;;5070409;28;20423;-80
2024/01/27 06:56:52;;;;;;;4.33;3.70;;;;;;;;;;5071071;28;20531;-81
2024/01/27 06:59:18;;;;;;;5.50;3.78;;;;;;;;;;5071943;28;20389;-80
2024/01/27 07:01:51;;;;;;;4.45;3.72;;;;;;;;;;5051736;28;20418;-82
2024/01/27 07:04:17;;;;;;;4.67;3.67;;;;;;;;;;5049871;28;20388;-80
2024/01/27 07:06:43;;;;;;;3.80;3.40;;;;;;;;;;5069150;28;20388;-80
2024/01/27 07:09:09;;;;;;;4.80;3.47;;;;;;;;;;5072575;28;20386;-79
2024/01/27 07:11:36;;;;;;;4.53;3.65;;;;;;;;;;5055914;28;20416;-81
2024/01/27 07:14:02;;;;;;;4.10;3.70;;;;;;;;;;5074122;28;20381;-82
2024/01/27 07:16:28;;;;;;;4.53;3.65;;;;;;;;;;5077537;28;20365;-83
2024/01/27 07:18:54;;;;;;;4.80;3.60;;;;;;;;;;5060861;28;20479;-82
2024/01/27 07:21:21;;;;;;;3.90;3.17;;;;;;;;;;5059521;28;20409;-82
2024/01/27 07:23:47;;;;;;;4.07;3.67;;;;;;;;;;5059218;28;20382;-84
2024/01/27 07:26:13;;;;;;;4.60;3.72;;;;;;;;;;5059203;28;20382;-82
2024/01/27 07:28:39;;;;;;;4.57;3.73;;;;;;;;;;5075646;28;20449;-81
2024/01/27 07:31:06;;;;;;;5.60;3.40;;;;;;;;;;5068247;28;20404;-81
2024/01/27 07:33:32;;;;;;;5.22;3.75;;;;;;;;;;5070382;28;20401;-80
2024/01/27 07:35:58;;;;;;;5.10;3.50;;;;;;;;;;5065648;28;20385;-81
2024/01/27 07:38:24;;;;;;;3.90;3.50;;;;;;;;;;5063256;28;20905;-79
2024/01/27 07:40:50;;;;;;;3.80;3.40;;;;;;;;;;5044968;28;20390;-80
2024/01/27 07:43:16;;;;;;;3.90;3.50;;;;;;;;;;5061979;28;20409;-81
2024/01/27 07:45:43;;;;;;;3.87;3.37;;;;;;;;;;5040702;28;20382;-81
2024/01/27 07:48:09;;;;;;;3.80;3.40;;;;;;;;;;5061008;28;20384;-80
2024/01/27 07:50:35;;;;;;;3.85;3.47;;;;;;;;;;5060971;28;20386;-80
2024/01/27 07:53:01;;;;;;;4.43;3.50;;;;;;;;;;5062288;28;20378;-81
2024/01/27 07:55:27;;;;;;;3.90;3.40;;;;;;;;;;5060822;28;20388;-80
2024/01/27 07:57:53;;;;;;;4.07;3.70;;;;;;;;;;5061636;28;20389;-80
2024/01/27 08:00:20;;;;;;;4.70;3.97;;;;;;;;;;5062980;28;20472;-79
2024/01/27 08:02:46;;;;;;;4.50;4.10;;;;;;;;;;5063863;28;20409;-80
2024/01/27 08:05:12;;;;;;;6.30;4.60;;;;;;;;;;5064240;28;20390;-81
2024/01/27 08:07:38;;;;;;;7.45;4.80;;;;;;;;;;5062797;28;20407;-79
2024/01/27 08:10:04;;;;;;;5.18;4.20;;;;;;;;;;5063340;28;20409;-79
2024/01/27 08:12:30;;;;;;;3.95;3.60;;;;;;;;;;5062914;28;20447;-80
2024/01/27 08:14:56;;;;;;;4.65;3.78;;;;;;;;;;5062398;28;20408;-79
2024/01/27 08:17:22;;;;;;;5.13;4.35;;;;;;;;;;5062060;28;20374;-79
2024/01/27 08:19:48;;;;;;;4.75;4.28;;;;;;;;;;5043995;28;20890;-80
2024/01/27 08:22:14;;;;;;;4.72;4.28;;;;;;;;;;5061722;28;20913;-81
2024/01/27 08:24:40;;;;;;;4.85;4.35;;;;;;;;;;5061218;28;20389;-79
2024/01/27 08:27:06;;;;;;;6.60;6.00;;;;;;;;;;5062576;28;20378;-81
2024/01/27 08:29:32;;;;;;;6.87;6.27;;;;;;;;;;5062695;28;20404;-79
2024/01/27 08:31:59;;;;;;;6.40;5.80;;;;;;;;;;5063837;28;20385;-81
2024/01/27 08:34:25;;;;;;;5.10;4.63;;;;;;;;;;5068951;28;20461;-81
2024/01/27 08:36:51;;;;;;;6.43;4.63;;;;;;;;;;5063688;28;20385;-80
2024/01/27 08:39:17;;;;;;;5.37;4.87;;;;;;;;;;5064290;28;20472;-79
2024/01/27 08:41:43;;;;;;;4.80;4.28;;;;;;;;;;5061150;28;20918;-81
2024/01/27 08:44:09;;;;;;;6.70;4.32;;;;;;;;;;5060023;28;20413;-80
2024/01/27 08:46:35;;;;;;;5.13;4.63;;;;;;;;;;5063150;28;20404;-80
2024/01/27 08:49:01;;;;;;;5.47;4.67;;;;;;;;;;5043970;28;20377;-80
2024/01/27 08:51:27;;;;;;;4.78;4.35;;;;;;;;;;5043378;28;20388;-80
2024/01/27 08:53:53;;;;;;;5.63;4.40;;;;;;;;;;5063848;28;20373;-81
2024/01/27 08:56:19;;;;;;;5.10;4.20;;;;;;;;;;5065640;28;20390;-81
2024/01/27 08:58:47;;;;;;;5.10;4.13;;;;;;;;;;5062289;28;20411;-81
2024/01/27 09:01:15;;;;;;;5.82;3.90;;;;;;;;;;5064122;28;20381;-81
2024/01/27 09:03:41;;;;;;;3.53;3.22;;;;;;;;;;5047740;28;20412;-79
2024/01/27 09:06:07;;;;;;;4.10;3.70;;;;;;;;;;5066288;28;21174;-80
2024/01/27 09:08:34;;;;;;;4.05;3.35;;;;;;;;;;5065676;28;20444;-80
2024/01/27 09:11:00;;;;;;;4.63;3.60;;;;;;;;;;5064574;28;20466;-80
2024/01/27 09:13:26;;;;;;;4.25;3.65;;;;;;;;;;5063784;28;20393;-81
2024/01/27 09:15:52;;;;;;;4.30;3.90;;;;;;;;;;5064183;28;20393;-82
2024/01/27 09:18:18;;;;;;;6.72;4.00;;;;;;;;;;5063386;28;20743;-82
2024/01/27 09:20:44;;;;;;;4.28;3.70;;;;;;;;;;5062909;28;20855;-80
2024/01/27 09:23:11;;;;;;;4.70;3.20;;;;;;;;;;5062087;28;20492;-81
2024/01/27 09:25:37;;;;;;;3.72;3.33;;;;;;;;;;5062687;28;20710;-80
2024/01/27 09:28:03;;;;;;;4.00;3.60;;;;;;;;;;5063351;28;20393;-81
2024/01/27 09:30:29;;;;;;;4.57;3.60;;;;;;;;;;5067258;28;20385;-80
2024/01/27 09:32:55;;;;;;;4.47;3.60;;;;;;;;;;5066105;28;20400;-81
2024/01/27 09:35:21;;;;;;;3.92;3.53;;;;;;;;;;5067195;28;20395;-80
2024/01/27 09:37:47;;;;;;;4.40;3.47;;;;;;;;;;5066755;28;20806;-81
2024/01/27 09:40:13;;;;;;;4.35;3.50;;;;;;;;;;5067458;28;20409;-80
2024/01/27 09:42:39;;;;;;;4.80;3.40;;;;;;;;;;5067359;28;20535;-81
2024/01/27 09:45:06;;;;;;;5.28;3.78;;;;;;;;;;5067052;28;20385;-81
2024/01/27 09:47:34;;;;;;;6.57;3.90;;;;;;;;;;5050064;28;20381;-81
2024/01/27 09:50:00;;;;;;;5.32;4.55;;;;;;;;;;5071942;28;20385;-81
2024/01/27 09:52:26;;;;;;;5.40;4.57;;;;;;;;;;5074090;28;20389;-80
2024/01/27 09:54:53;;;;;;;5.45;4.90;;;;;;;;;;5073662;28;20595;-80
2024/01/27 09:57:20;;;;;;;6.10;4.45;;;;;;;;;;5073702;28;20389;-81
2024/01/27 09:59:47;;;;;;;6.13;5.18;;;;;;;;;;5056843;28;20774;-80
2024/01/27 10:02:14;;;;;;;6.65;4.95;;;;;;;;;;5073573;28;20481;-80
2024/01/27 10:04:41;;;;;;;6.13;5.50;;;;;;;;;;5074870;28;20385;-80
2024/01/27 10:07:07;;;;;;;7.40;6.05;;;;;;;;;;5072090;28;20425;-80
2024/01/27 10:09:33;;;;;;;7.05;5.88;;;;;;;;;;5072877;28;20381;-80
2024/01/27 10:12:01;;;;;;;8.60;5.78;;;;;;;;;;5064679;28;20378;-80
2024/01/27 10:14:38;;;;;;;6.57;5.53;;;;;;;;;;5063146;28;20716;-80
2024/01/27 10:17:04;;;;;;;9.55;6.18;;;;;;;;;;5062715;28;20373;-79
2024/01/27 10:19:30;;;;;;;6.97;5.72;;;;;;;;;;5062384;28;20377;-79
2024/01/27 10:22:04;;;;;;;8.33;5.10;;;;;;;;;;5061528;28;20463;-81
2024/01/27 10:24:32;;;;;;;5.53;4.53;;;;;;;;;;5060506;28;20517;-80
2024/01/27 10:27:03;;;;;;;6.38;4.88;;;;;;;;;;5060483;28;20373;-80
2024/01/27 10:29:29;;;;;;;9.50;5.10;;;;;;;;;;5060784;28;20382;-79
2024/01/27 10:31:55;;;;;;;9.27;5.53;;;;;;;;;;5061239;28;21181;-80
2024/01/27 10:34:21;;;;;;;6.83;4.70;;;;;;;;;;5060193;28;20390;-79
2024/01/27 10:36:47;;;;;;;9.23;4.72;;;;;;;;;;5060921;28;20469;-80
2024/01/27 10:39:23;;;;;;;6.03;4.05;;;;;;;;;;5059310;28;20381;-81
2024/01/27 10:41:50;;;;;;;5.70;3.92;;;;;;;;;;5040956;28;20464;-81
2024/01/27 10:44:17;;;;;;;5.47;3.40;;;;;;;;;;5058857;28;20472;-80
2024/01/27 10:46:45;;;;;;;5.20;3.40;;;;;;;;;;5059616;28;20464;-82
2024/01/27 10:49:13;;;;;;;5.33;3.90;;;;;;;;;;5059076;28;20886;-81
2024/01/27 10:51:41;;;;;;;6.78;3.75;;;;;;;;;;5058587;28;20728;-80
2024/01/27 10:54:08;;;;;;;3.25;2.30;;;;;;;;;;5058330;28;20427;-80
2024/01/27 10:56:35;;;;;;;6.20;2.92;;;;;;;;;;5057709;28;20381;-82
2024/01/27 10:59:02;;;;;;;4.10;2.50;;;;;;;;;;5057502;28;20842;-81
2024/01/27 11:01:28;;;;;;;5.22;2.28;;;;;;;;;;5057495;28;20381;-81
2024/01/27 11:03:55;;;;;;;3.92;2.40;;;;;;;;;;5057470;28;20378;-80
2024/01/27 11:06:22;;;;;;;4.28;1.77;;;;;;;;;;5057228;28;20476;-82
2024/01/27 11:08:52;;;;;;;3.60;2.00;;;;;;;;;;5057600;28;20417;-82
2024/01/27 11:11:19;;;;;;;5.67;2.33;;;;;;;;;;5058279;28;20749;-81
2024/01/27 11:13:47;;;;;;;4.13;2.20;;;;;;;;;;5058356;28;20402;-81
2024/01/27 11:16:17;;;;;;;5.32;2.30;;;;;;;;;;5057485;28;20744;-82
2024/01/27 11:18:43;;;;;;;4.88;2.00;;;;;;;;;;5057865;28;20431;-81
2024/01/27 11:21:14;;;;;;;4.75;2.13;;;;;;;;;;5058497;28;20377;-81
2024/01/27 11:23:40;;;;;;;5.03;2.40;;;;;;;;;;5040140;28;20767;-81
2024/01/27 11:26:07;;;;;;;3.90;2.20;;;;;;;;;;5057681;28;20373;-82
2024/01/27 11:28:33;;;;;;;4.27;1.93;;;;;;;;;;5039839;28;20781;-81
2024/01/27 11:31:03;;;;;;;4.38;2.08;;;;;;;;;;5040334;28;20868;-82
2024/01/27 11:33:29;;;;;;;3.80;2.03;;;;;;;;;;5057451;28;20373;-82
2024/01/27 11:36:02;;;;;;;9.63;6.63;;;;;;;;;;5057904;28;20455;-82
2024/01/27 11:38:28;;;;;;;5.43;2.38;;;;;;;;;;5057494;28;20465;-82
2024/01/27 11:40:55;;;;;;;3.50;2.42;;;;;;;;;;5039264;28;20386;-82
2024/01/27 11:43:21;;;;;;;4.10;2.55;;;;;;;;;;5057634;28;20767;-81
2024/01/27 11:45:57;;;;;;;4.90;2.40;;;;;;;;;;5057286;28;20384;-81
2024/01/27 11:48:23;;;;;;;4.63;2.78;;;;;;;;;;5057134;28;20379;-82
2024/01/27 11:50:49;;;;;;;5.70;2.65;;;;;;;;;;5039264;28;20386;-82
2024/01/27 11:53:15;;;;;;;4.93;2.80;;;;;;;;;;5056767;28;20915;-81
2024/01/27 11:55:41;;;;;;;3.58;2.10;;;;;;;;;;5039013;28;20396;-82
2024/01/27 11:58:07;;;;;;;4.57;2.80;;;;;;;;;;5057032;28;20378;-81
2024/01/27 12:00:33;;;;;;;4.25;2.38;;;;;;;;;;5056851;28;20539;-81
2024/01/27 12:02:59;;;;;;;4.43;2.40;;;;;;;;;;5056120;28;20405;-81
2024/01/27 12:05:25;;;;;;;3.55;2.35;;;;;;;;;;5055824;28;20369;-81
2024/01/27 12:07:51;;;;;;;3.77;2.47;;;;;;;;;;5055892;28;20822;-81
2024/01/27 12:10:17;;;;;;;4.65;2.50;;;;;;;;;;5055752;28;20488;-81
2024/01/27 12:12:43;;;;;;;6.03;2.90;;;;;;;;;;5055726;28;20428;-82
2024/01/27 12:15:09;;;;;;;5.27;3.40;;;;;;;;;;5055549;28;20378;-82
2024/01/27 12:17:35;;;;;;;5.25;3.17;;;;;;;;;;5055481;28;20519;-81
2024/01/27 12:20:02;;;;;;;4.00;2.70;;;;;;;;;;5037167;28;20416;-81
2024/01/27 12:22:28;;;;;;;5.77;3.00;;;;;;;;;;5054761;28;20405;-81
2024/01/27 12:24:55;;;;;;;6.45;4.00;;;;;;;;;;5037589;28;20377;-82
2024/01/27 12:27:24;;;;;;;6.88;3.60;;;;;;;;;;5055719;28;20445;-81
2024/01/27 12:29:51;;;;;;;4.78;2.75;;;;;;;;;;5055697;28;20385;-80
2024/01/27 12:32:17;;;;;;;5.38;3.20;;;;;;;;;;5054880;28;20401;-81
2024/01/27 12:34:45;;;;;;;5.05;2.97;;;;;;;;;;5054750;28;20428;-82
2024/01/27 12:37:12;;;;;;;6.97;3.00;;;;;;;;;;5055085;28;20940;-81
2024/01/27 12:39:38;;;;;;;5.63;2.92;;;;;;;;;;5055229;28;20377;-80
2024/01/27 12:42:04;;;;;;;5.83;3.20;;;;;;;;;;5055202;28;20467;-81
2024/01/27 12:44:30;;;;;;;6.50;3.08;;;;;;;;;;5055101;28;20413;-82
2024/01/27 12:46:57;;;;;;;6.57;4.18;;;;;;;;;;5054891;28;20385;-81
2024/01/27 12:49:23;;;;;;;7.20;4.40;;;;;;;;;;5055362;28;20388;-80
2024/01/27 12:51:49;;;;;;;4.25;3.00;;;;;;;;;;5037813;28;20405;-80
2024/01/27 12:54:16;;;;;;;6.32;3.00;;;;;;;;;;5055384;28;20386;-80
2024/01/27 12:56:42;;;;;;;4.88;2.92;;;;;;;;;;5037241;28;20447;-82
2024/01/27 12:59:08;;;;;;;3.85;2.47;;;;;;;;;;5054418;28;20381;-81
2024/01/27 13:01:34;;;;;;;4.23;2.60;;;;;;;;;;5054045;28;20382;-82
2024/01/27 13:04:00;;;;;;;3.83;2.83;;;;;;;;;;5053866;28;20382;-82
2024/01/27 13:06:26;;;;;;;5.50;2.50;;;;;;;;;;5053787;28;20418;-81
2024/01/27 13:08:52;;;;;;;4.55;2.78;;;;;;;;;;5052598;28;20405;-79
2024/01/27 13:11:18;;;;;;;4.00;2.33;;;;;;;;;;5035397;28;20404;-80
2024/01/27 13:13:44;;;;;;;5.00;2.55;;;;;;;;;;5054149;28;20385;-81
2024/01/27 13:16:10;;;;;;;4.72;2.28;;;;;;;;;;5055806;28;20476;-81
2024/01/27 13:18:37;;;;;;;4.13;2.30;;;;;;;;;;5057271;28;20389;-80
2024/01/27 13:21:05;;;;;;;5.25;2.10;;;;;;;;;;5055641;28;20378;-80
2024/01/27 13:23:31;;;;;;;3.30;2.10;;;;;;;;;;5055864;28;20405;-80
2024/01/27 13:25:57;;;;;;;4.63;2.28;;;;;;;;;;5054414;28;20413;-79
2024/01/27 13:28:23;;;;;;;5.00;2.30;;;;;;;;;;5055057;28;20463;-80
2024/01/27 13:30:49;;;;;;;5.40;2.10;;;;;;;;;;5055987;28;20381;-79
2024/01/27 13:33:18;;;;;;;4.00;2.13;;;;;;;;;;5056270;28;20384;-80
2024/01/27 13:35:46;;;;;;;3.03;2.20;;;;;;;;;;5055440;28;20412;-80
2024/01/27 13:38:15;;;;;;;4.63;2.10;;;;;;;;;;5055189;28;20411;-81
2024/01/27 13:40:42;;;;;;;4.10;2.05;;;;;;;;;;5055917;28;20731;-81
2024/01/27 13:43:08;;;;;;;3.30;2.05;;;;;;;;;;5055180;28;20463;-79
2024/01/27 13:45:34;;;;;;;2.20;1.85;;;;;;;;;;5055759;28;20401;-79
2024/01/27 13:48:01;;;;;;;3.15;1.80;;;;;;;;;;5056318;28;20804;-80
2024/01/27 13:50:30;;;;;;;4.50;2.03;;;;;;;;;;5055932;28;20373;-80
2024/01/27 13:52:56;;;;;;;4.18;1.70;;;;;;;;;;5055177;28;20381;-81
2024/01/27 13:55:22;;;;;;;3.42;1.90;;;;;;;;;;5055579;28;20420;-81
2024/01/27 13:57:48;;;;;;;2.92;1.60;;;;;;;;;;5055970;28;20381;-81
2024/01/27 14:00:15;;;;;;;3.20;1.70;;;;;;;;;;5055327;28;20392;-79
2024/01/27 14:02:42;;;;;;;3.90;1.70;;;;;;;;;;5056009;28;20412;-80
2024/01/27 14:05:09;;;;;;;2.90;1.67;;;;;;;;;;5056142;28;20374;-81
2024/01/27 14:07:35;;;;;;;4.60;1.88;;;;;;;;;;5055418;28;20405;-81
2024/01/27 14:10:01;;;;;;;3.10;1.85;;;;;;;;;;5035105;28;20450;-81
2024/01/27 14:12:27;;;;;;;3.03;1.90;;;;;;;;;;5055788;28;20440;-81
2024/01/27 14:14:54;;;;;;;3.03;1.80;;;;;;;;;;5057840;28;20392;-80
2024/01/27 14:17:20;;;;;;;2.63;1.55;;;;;;;;;;5059075;28;20385;-81
2024/01/27 14:19:47;;;;;;;4.10;1.80;;;;;;;;;;5059291;28;20783;-81
2024/01/27 14:22:13;;;;;;;3.83;2.10;;;;;;;;;;5059835;28;20763;-80
2024/01/27 14:24:39;;;;;;;3.13;1.30;;;;;;;;;;5059537;28;20386;-81
2024/01/27 14:27:07;;;;;;;2.85;1.50;;;;;;;;;;5059483;28;20377;-81
2024/01/27 14:29:34;;;;;;;2.75;1.30;;;;;;;;;;5059881;28;20384;-81
2024/01/27 14:32:00;;;;;;;3.73;1.40;;;;;;;;;;5059589;28;20381;-80
2024/01/27 14:34:26;;;;;;;4.65;1.50;;;;;;;;;;5059064;28;20889;-81
2024/01/27 14:36:54;;;;;;;2.58;1.40;;;;;;;;;;5058511;28;20436;-81
2024/01/27 14:39:20;;;;;;;3.53;1.37;;;;;;;;;;5058981;28;20382;-81
2024/01/27 14:41:46;;;;;;;2.40;1.40;;;;;;;;;;5059176;28;20389;-81
2024/01/27 14:44:12;;;;;;;3.92;1.50;;;;;;;;;;5059775;28;20374;-80